createdAt,value
2018-10-19T00:01:59.217Z,40.53
2018-10-19T00:04:27.820Z,36.33
2018-10-19T00:06:56.455Z,39.33
2018-10-19T00:09:25.153Z,37.97
2018-10-19T00:11:53.749Z,36.97
2018-10-19T00:14:22.354Z,35.60
2018-10-19T00:16:50.912Z,37.03
2018-10-19T00:19:19.575Z,35.93
2018-10-19T00:21:48.799Z,37.23
2018-10-19T00:24:17.448Z,37.17
2018-10-19T00:26:46.746Z,33.67
2018-10-19T00:29:15.365Z,31.73
2018-10-19T00:31:43.957Z,28.33
2018-10-19T00:34:12.516Z,25.00
2018-10-19T00:36:41.136Z,31.93
2018-10-19T00:39:11.321Z,29.67
2018-10-19T00:41:40.066Z,31.30
2018-10-19T00:44:08.669Z,33.73
2018-10-19T00:46:37.244Z,36.20
2018-10-19T00:49:06.989Z,31.70
2018-10-19T00:51:40.067Z,32.40
2018-10-19T00:54:08.875Z,32.17
2018-10-19T00:56:37.750Z,31.23
2018-10-19T00:59:06.443Z,35.60
2018-10-19T01:01:35.078Z,31.63
2018-10-19T01:04:03.633Z,32.87
2018-10-19T01:06:32.299Z,37.80
2018-10-19T01:09:00.920Z,38.83
2018-10-19T01:11:29.518Z,38.30
2018-10-19T01:13:58.124Z,35.80
2018-10-19T01:16:26.820Z,31.23
2018-10-19T01:18:55.541Z,38.47
2018-10-19T01:21:24.209Z,32.40
2018-10-19T01:23:52.826Z,27.63
2018-10-19T01:26:21.413Z,27.50
2018-10-19T01:28:50.127Z,29.43
2018-10-19T01:31:18.828Z,29.03
2018-10-19T01:33:47.457Z,26.60
2018-10-19T01:36:16.064Z,27.00
2018-10-19T01:38:44.688Z,31.97
2018-10-19T01:41:14.074Z,29.10
2018-10-19T01:43:42.673Z,27.13
2018-10-19T01:46:11.255Z,74.70
2018-10-19T01:48:39.782Z,35.77
2018-10-19T01:51:08.400Z,27.90
2018-10-19T01:53:37.137Z,27.37
2018-10-19T01:56:05.790Z,27.67
2018-10-19T01:58:34.365Z,30.33
2018-10-19T02:01:03.001Z,31.50
2018-10-19T02:03:31.594Z,31.67
2018-10-19T02:06:00.209Z,32.03
2018-10-19T02:08:28.852Z,32.10
2018-10-19T02:11:00.264Z,26.93
2018-10-19T02:13:28.972Z,133.53
2018-10-19T02:15:57.549Z,84.60
2018-10-19T02:18:26.187Z,30.20
2018-10-19T02:20:54.780Z,30.27
2018-10-19T02:23:23.401Z,31.50
2018-10-19T02:25:51.985Z,25.87
2018-10-19T02:28:20.687Z,25.10
2018-10-19T02:30:49.298Z,29.70
2018-10-19T02:33:17.894Z,58.63
2018-10-19T02:35:46.484Z,26.30
2018-10-19T02:38:15.033Z,30.93
2018-10-19T02:40:43.634Z,26.03
2018-10-19T02:43:12.371Z,30.43
2018-10-19T02:45:42.765Z,31.23
2018-10-19T02:48:12.106Z,30.27
2018-10-19T02:50:40.736Z,30.63
2018-10-19T02:53:09.295Z,28.57
2018-10-19T02:55:38.007Z,30.00
2018-10-19T02:58:06.609Z,32.97
2018-10-19T03:00:35.189Z,28.27
2018-10-19T03:03:03.801Z,31.27
2018-10-19T03:05:32.375Z,30.07
2018-10-19T03:08:01.112Z,29.10
2018-10-19T03:10:29.829Z,29.30
2018-10-19T03:12:58.490Z,28.37
2018-10-19T03:15:27.117Z,30.30
2018-10-19T03:17:56.427Z,28.27
2018-10-19T03:20:25.016Z,32.00
2018-10-19T03:22:53.767Z,35.47
2018-10-19T03:25:23.047Z,43.63
2018-10-19T03:27:52.374Z,49.40
2018-10-19T03:30:21.140Z,52.37
2018-10-19T03:32:49.743Z,32.83
2018-10-19T03:35:18.338Z,47.80
2018-10-19T03:37:47.041Z,40.60
2018-10-19T03:40:15.665Z,42.23
2018-10-19T03:42:44.221Z,42.63
2018-10-19T03:45:12.888Z,40.63
2018-10-19T03:47:41.480Z,38.50
2018-10-19T03:50:10.743Z,31.57
2018-10-19T03:52:39.297Z,37.10
2018-10-19T03:55:07.945Z,40.07
2018-10-19T03:57:36.663Z,45.93
2018-10-19T04:00:05.418Z,49.97
2018-10-19T04:02:33.948Z,38.17
2018-10-19T04:05:02.633Z,38.07
2018-10-19T04:07:31.346Z,28.63
2018-10-19T04:10:00.070Z,28.80
2018-10-19T04:12:29.371Z,29.33
2018-10-19T04:14:58.009Z,34.03
2018-10-19T04:17:26.601Z,33.43
2018-10-19T04:19:55.271Z,31.47
2018-10-19T04:22:23.976Z,32.10
2018-10-19T04:24:52.696Z,33.30
2018-10-19T04:27:21.622Z,33.70
2018-10-19T04:29:50.581Z,35.63
2018-10-19T04:32:19.235Z,43.13
2018-10-19T04:34:47.883Z,49.03
2018-10-19T04:37:16.562Z,36.17
2018-10-19T04:39:45.538Z,38.53
2018-10-19T04:42:14.216Z,48.10
2018-10-19T04:44:42.842Z,44.40
2018-10-19T04:47:11.718Z,52.30
2018-10-19T04:49:40.203Z,51.43
2018-10-19T04:52:08.852Z,45.77
2018-10-19T04:54:37.483Z,43.57
2018-10-19T04:57:06.710Z,58.60
2018-10-19T04:59:35.319Z,95.83
2018-10-19T05:02:03.986Z,58.43
2018-10-19T05:04:32.631Z,117.17
2018-10-19T05:07:01.519Z,119.90
2018-10-19T05:09:30.117Z,108.07
2018-10-19T05:11:58.918Z,124.83
2018-10-19T05:14:27.550Z,199.20
2018-10-19T05:16:56.375Z,164.83
2018-10-19T05:19:24.914Z,290.17
2018-10-19T05:21:53.599Z,364.37
2018-10-19T05:24:22.151Z,288.97
2018-10-19T05:26:50.754Z,192.77
2018-10-19T05:29:19.415Z,126.97
2018-10-19T05:31:48.140Z,287.83
2018-10-19T05:34:16.938Z,137.77
2018-10-19T05:36:45.598Z,114.33
2018-10-19T05:39:14.305Z,132.00
2018-10-19T05:41:42.993Z,115.63
2018-10-19T05:44:11.761Z,93.17
2018-10-19T05:46:40.464Z,126.80
2018-10-19T05:49:09.245Z,133.17
2018-10-19T05:51:38.076Z,92.70
2018-10-19T05:54:06.842Z,222.37
2018-10-19T05:56:35.725Z,99.57
2018-10-19T05:59:04.886Z,199.60
2018-10-19T06:01:33.762Z,100.27
2018-10-19T06:04:02.499Z,272.87
2018-10-19T06:06:31.210Z,334.57
2018-10-19T06:08:59.936Z,310.50
2018-10-19T06:11:28.798Z,411.47
2018-10-19T06:13:57.813Z,150.07
2018-10-19T06:16:26.653Z,165.87
2018-10-19T06:18:55.459Z,108.23
2018-10-19T06:21:24.217Z,107.53
2018-10-19T06:23:52.944Z,94.77
2018-10-19T06:26:22.059Z,141.67
2018-10-19T06:28:50.911Z,161.87
2018-10-19T06:31:19.642Z,159.60
2018-10-19T06:33:48.431Z,55.70
2018-10-19T06:36:17.252Z,92.50
2018-10-19T06:38:46.306Z,97.30
2018-10-19T06:41:15.338Z,157.80
2018-10-19T06:43:44.217Z,81.20
2018-10-19T06:46:12.921Z,86.23
2018-10-19T06:48:41.731Z,93.63
2018-10-19T06:51:10.416Z,68.17
2018-10-19T06:53:39.178Z,121.40
2018-10-19T06:56:08.496Z,163.43
2018-10-19T06:58:37.222Z,265.67
2018-10-19T07:01:06.330Z,228.93
2018-10-19T07:03:35.193Z,76.03
2018-10-19T07:06:04.175Z,132.47
2018-10-19T07:08:32.876Z,99.10
2018-10-19T07:11:01.613Z,157.53
2018-10-19T07:13:30.281Z,284.60
2018-10-19T07:16:00.191Z,123.13
2018-10-19T07:18:28.818Z,261.63
2018-10-19T07:20:57.500Z,164.83
2018-10-19T07:23:26.254Z,105.47
2018-10-19T07:25:55.024Z,108.57
2018-10-19T07:28:23.807Z,314.13
2018-10-19T07:30:52.829Z,178.20
2018-10-19T07:33:21.448Z,193.73
2018-10-19T07:35:50.315Z,85.63
2018-10-19T07:38:19.066Z,71.60
2018-10-19T07:40:47.757Z,68.27
2018-10-19T07:43:16.529Z,121.73
2018-10-19T07:45:45.224Z,122.87
2018-10-19T07:48:14.176Z,107.87
2018-10-19T07:50:42.715Z,172.77
2018-10-19T07:53:11.509Z,141.33
2018-10-19T07:55:40.086Z,206.47
2018-10-19T07:58:08.819Z,137.83
2018-10-19T08:00:37.491Z,123.33
2018-10-19T08:03:06.003Z,91.37
2018-10-19T08:05:34.717Z,162.00
2018-10-19T08:08:03.316Z,122.40
2018-10-19T08:10:31.974Z,228.10
2018-10-19T08:13:00.560Z,81.13
2018-10-19T08:15:29.289Z,94.47
2018-10-19T08:17:57.922Z,73.80
2018-10-19T08:20:26.456Z,156.17
2018-10-19T08:22:55.225Z,174.43
2018-10-19T08:25:23.875Z,178.17
2018-10-19T08:27:53.022Z,101.80
2018-10-19T08:30:21.736Z,67.33
2018-10-19T08:32:50.456Z,64.50
2018-10-19T08:35:19.088Z,93.50
2018-10-19T08:37:47.748Z,133.50
2018-10-19T08:40:16.421Z,67.93
2018-10-19T08:42:45.070Z,84.87
2018-10-19T08:45:13.830Z,56.47
2018-10-19T08:47:42.558Z,203.07
2018-10-19T08:50:11.173Z,154.27
2018-10-19T08:52:39.841Z,81.53
2018-10-19T08:55:08.546Z,72.83
2018-10-19T08:57:37.291Z,68.97
2018-10-19T09:00:07.840Z,86.70
2018-10-19T09:02:36.397Z,131.80
2018-10-19T09:05:05.462Z,71.13
2018-10-19T09:07:34.338Z,96.77
2018-10-19T09:10:03.575Z,59.53
2018-10-19T09:12:32.274Z,80.57
2018-10-19T09:15:02.068Z,79.23
2018-10-19T09:17:30.637Z,56.77
2018-10-19T09:19:59.894Z,79.27
2018-10-19T09:22:28.546Z,69.07
2018-10-19T09:24:57.235Z,248.83
2018-10-19T09:27:25.938Z,102.90
2018-10-19T09:29:54.615Z,63.67
2018-10-19T09:32:23.196Z,52.43
2018-10-19T09:34:51.880Z,45.97
2018-10-19T09:37:20.461Z,68.50
2018-10-19T09:39:49.090Z,61.93
2018-10-19T09:42:17.718Z,71.43
2018-10-19T09:44:46.377Z,60.30
2018-10-19T09:47:15.149Z,76.07
2018-10-19T09:49:43.825Z,68.87
2018-10-19T09:52:12.397Z,72.83
2018-10-19T09:54:41.132Z,66.47
2018-10-19T09:57:09.859Z,50.10
2018-10-19T09:59:38.585Z,57.00
2018-10-19T10:02:07.239Z,61.77
2018-10-19T10:04:35.969Z,72.33
2018-10-19T10:07:04.880Z,54.77
2018-10-19T10:09:33.540Z,51.90
2018-10-19T10:12:02.137Z,64.67
2018-10-19T10:14:30.793Z,53.77
2018-10-19T10:16:59.452Z,48.20
2018-10-19T10:19:28.024Z,49.00
2018-10-19T10:21:56.673Z,87.70
2018-10-19T10:24:25.865Z,59.87
2018-10-19T10:26:54.558Z,58.77
2018-10-19T10:29:23.378Z,101.27
2018-10-19T10:31:52.039Z,47.00
2018-10-19T10:34:20.816Z,42.93
2018-10-19T10:36:49.503Z,47.83
2018-10-19T10:39:18.449Z,49.53
2018-10-19T10:41:46.986Z,61.97
2018-10-19T10:44:15.674Z,44.47
2018-10-19T10:46:44.216Z,40.47
2018-10-19T10:49:12.814Z,44.93
2018-10-19T10:51:41.365Z,48.77
2018-10-19T10:54:09.953Z,36.47
2018-10-19T10:56:38.587Z,37.67
2018-10-19T10:59:07.205Z,53.70
2018-10-19T11:01:35.836Z,38.20
2018-10-19T11:04:04.518Z,38.10
2018-10-19T11:06:33.190Z,32.40
2018-10-19T11:09:01.763Z,30.23
2018-10-19T11:11:30.362Z,31.53
2018-10-19T11:13:58.948Z,30.23
2018-10-19T11:16:27.645Z,34.30
2018-10-19T11:18:56.294Z,31.80
2018-10-19T11:21:24.926Z,31.17
2018-10-19T11:23:53.657Z,29.60
2018-10-19T11:26:22.206Z,29.70
2018-10-19T11:28:50.813Z,34.43
2018-10-19T11:31:19.400Z,30.10
2018-10-19T11:33:48.046Z,30.03
2018-10-19T11:36:16.760Z,34.20
2018-10-19T11:38:45.523Z,28.87
2018-10-19T11:41:14.085Z,27.50
2018-10-19T11:43:42.868Z,28.43
2018-10-19T11:46:11.623Z,28.37
2018-10-19T11:48:40.234Z,27.10
2018-10-19T11:51:08.765Z,27.50
2018-10-19T11:53:37.486Z,29.87
2018-10-19T11:56:06.954Z,28.23
2018-10-19T11:58:35.568Z,31.80
2018-10-19T12:01:04.179Z,30.60
2018-10-19T12:03:33.617Z,27.00
2018-10-19T12:06:02.170Z,29.83
2018-10-19T12:08:30.771Z,26.97
2018-10-19T12:10:59.368Z,227.37
2018-10-19T12:13:27.940Z,58.53
2018-10-19T12:15:56.590Z,34.77
2018-10-19T12:18:25.218Z,65.07
2018-10-19T12:20:53.833Z,30.77
2018-10-19T12:23:23.600Z,27.13
2018-10-19T12:25:52.295Z,24.77
2018-10-19T12:28:20.944Z,26.83
2018-10-19T12:30:49.577Z,26.33
2018-10-19T12:33:18.290Z,26.20
2018-10-19T12:35:46.901Z,68.50
2018-10-19T12:38:15.402Z,28.27
2018-10-19T12:40:44.086Z,242.97
2018-10-19T12:43:12.658Z,46.67
2018-10-19T12:46:51.414Z,31.67
2018-10-19T12:49:24.158Z,35.93
2018-10-19T12:51:52.687Z,25.87
2018-10-19T12:54:21.361Z,47.00
2018-10-19T12:56:50.056Z,45.13
2018-10-19T12:59:18.796Z,28.60
2018-10-19T13:01:47.343Z,32.00
2018-10-19T13:04:16.031Z,29.90
2018-10-19T13:06:44.590Z,30.13
2018-10-19T13:09:13.979Z,32.90
2018-10-19T13:11:43.222Z,31.37
2018-10-19T13:14:11.947Z,28.50
2018-10-19T13:16:40.614Z,27.73
2018-10-19T13:19:09.374Z,33.87
2018-10-19T13:21:38.049Z,40.97
2018-10-19T13:24:06.757Z,28.67
2018-10-19T13:26:35.518Z,41.83
2018-10-19T13:29:04.430Z,27.93
2018-10-19T13:31:33.037Z,26.00
2018-10-19T13:34:01.646Z,25.30
2018-10-19T13:36:30.313Z,24.33
2018-10-19T13:38:58.937Z,24.90
2018-10-19T13:41:27.612Z,25.23
2018-10-19T13:43:56.308Z,26.17
2018-10-19T13:46:25.029Z,25.83
2018-10-19T13:48:53.779Z,27.80
2018-10-19T13:51:22.471Z,32.23
2018-10-19T13:53:51.254Z,30.93
2018-10-19T13:56:19.809Z,25.27
2018-10-19T13:58:48.583Z,23.33
2018-10-19T14:01:17.199Z,26.10
2018-10-19T14:03:45.856Z,24.63
2018-10-19T14:06:15.103Z,24.33
2018-10-19T14:08:43.793Z,25.87
2018-10-19T14:11:12.689Z,34.20
2018-10-19T14:13:41.420Z,34.13
2018-10-19T14:16:10.174Z,33.57
2018-10-19T14:18:38.800Z,28.30
2018-10-19T14:21:07.560Z,129.30
2018-10-19T14:23:36.306Z,31.13
2018-10-19T14:26:05.001Z,29.23
2018-10-19T14:28:33.757Z,31.57
2018-10-19T14:31:02.370Z,31.13
2018-10-19T14:33:31.138Z,30.00
2018-10-19T14:35:59.614Z,31.07
2018-10-19T14:38:28.483Z,33.00
2018-10-19T14:40:57.700Z,28.63
2018-10-19T14:43:26.335Z,30.63
2018-10-19T14:45:54.981Z,32.57
2018-10-19T14:48:23.636Z,30.97
2018-10-19T14:50:52.382Z,31.97
2018-10-19T14:53:20.897Z,32.83
2018-10-19T14:55:49.640Z,34.77
2018-10-19T14:58:19.485Z,89.57
2018-10-19T15:00:48.373Z,32.57
2018-10-19T15:03:17.122Z,41.47
2018-10-19T15:05:45.617Z,35.97
2018-10-19T15:08:14.342Z,34.73
2018-10-19T15:10:43.267Z,38.27
2018-10-19T15:13:11.723Z,42.63
2018-10-19T15:15:40.302Z,47.27
2018-10-19T15:18:08.945Z,42.23
2018-10-19T15:20:37.584Z,46.37
2018-10-19T15:23:06.298Z,53.07
2018-10-19T15:25:35.041Z,104.43
2018-10-19T15:28:03.714Z,47.57
2018-10-19T15:30:32.339Z,43.10
2018-10-19T15:33:01.894Z,48.17
2018-10-19T15:35:30.494Z,53.70
2018-10-19T15:37:59.211Z,54.27
2018-10-19T15:40:27.845Z,49.33
2018-10-19T15:42:56.400Z,49.80
2018-10-19T15:45:25.254Z,49.87
2018-10-19T15:47:53.996Z,52.70
2018-10-19T15:50:22.606Z,49.43
2018-10-19T15:52:51.261Z,53.93
2018-10-19T15:55:19.865Z,57.10
2018-10-19T15:57:48.623Z,58.10
2018-10-19T16:00:17.690Z,58.03
2018-10-19T16:02:46.369Z,60.80
2018-10-19T16:05:15.080Z,60.33
2018-10-19T16:07:43.766Z,61.93
2018-10-19T16:10:12.401Z,64.27
2018-10-19T16:12:41.977Z,65.13
2018-10-19T16:15:11.456Z,64.60
2018-10-19T16:17:40.176Z,69.90
2018-10-19T16:20:09.944Z,70.73
2018-10-19T16:22:39.023Z,66.83
2018-10-19T16:25:08.465Z,71.83
2018-10-19T16:27:38.317Z,66.90
2018-10-19T16:30:08.140Z,69.63
2018-10-19T16:32:37.251Z,70.43
2018-10-19T16:35:06.157Z,74.97
2018-10-19T16:37:34.833Z,71.60
2018-10-19T16:40:03.471Z,73.77
2018-10-19T16:42:32.023Z,77.90
2018-10-19T16:45:01.467Z,70.33
2018-10-19T16:47:30.002Z,75.30
2018-10-19T16:49:58.569Z,75.73
2018-10-19T16:52:27.266Z,77.73
2018-10-19T16:54:55.677Z,143.33
2018-10-19T16:57:24.281Z,228.50
2018-10-19T16:59:53.451Z,188.03
2018-10-19T17:02:22.853Z,142.87
2018-10-19T17:04:51.500Z,96.80
2018-10-19T17:07:19.959Z,90.03
2018-10-19T17:09:48.505Z,83.27
2018-10-19T17:12:17.794Z,87.10
2018-10-19T17:14:47.204Z,83.87
2018-10-19T17:17:15.713Z,84.90
2018-10-19T17:19:44.280Z,87.60
2018-10-19T17:22:12.997Z,85.97
2018-10-19T17:24:41.761Z,88.03
2018-10-19T17:27:10.372Z,78.37
2018-10-19T17:29:38.913Z,83.30
2018-10-19T17:32:07.926Z,88.17
2018-10-19T17:34:39.755Z,91.07
2018-10-19T17:37:12.744Z,86.03
2018-10-19T17:39:46.628Z,79.60
2018-10-19T17:42:18.625Z,99.07
2018-10-19T17:44:50.612Z,95.77
2018-10-19T17:47:23.724Z,159.67
2018-10-19T17:49:58.019Z,167.20
2018-10-19T17:52:30.966Z,92.43
2018-10-19T17:55:03.609Z,96.63
2018-10-19T17:57:37.989Z,90.70
2018-10-19T18:00:08.883Z,94.53
2018-10-19T18:02:42.003Z,87.73
2018-10-19T18:05:10.753Z,93.90
2018-10-19T18:07:40.004Z,94.10
2018-10-19T18:10:08.593Z,101.23
2018-10-19T18:12:38.188Z,120.60
2018-10-19T18:15:06.794Z,204.47
2018-10-19T18:17:35.803Z,101.73
2018-10-19T18:20:04.391Z,101.60
2018-10-19T18:22:33.182Z,108.07
2018-10-19T18:25:02.214Z,105.13
2018-10-19T18:27:30.789Z,98.53
2018-10-19T18:30:00.015Z,104.73
2018-10-19T18:32:32.338Z,109.13
2018-10-19T18:35:04.844Z,101.93
2018-10-19T18:37:36.103Z,114.20
2018-10-19T18:40:07.599Z,106.93
2018-10-19T18:42:36.434Z,102.17
2018-10-19T18:45:06.459Z,112.97
2018-10-19T18:47:35.277Z,104.57
2018-10-19T18:50:04.187Z,124.97
2018-10-19T18:52:32.858Z,120.50
2018-10-19T18:55:01.802Z,109.27
2018-10-19T18:57:30.898Z,104.37
2018-10-19T18:59:59.474Z,105.47
2018-10-19T19:02:28.263Z,104.97
2018-10-19T19:04:57.289Z,124.13
2018-10-19T19:07:25.905Z,115.00
2018-10-19T19:10:00.141Z,116.30
2018-10-19T19:12:28.839Z,109.40
2018-10-19T19:14:57.700Z,106.50
2018-10-19T19:17:27.177Z,108.73
2018-10-19T19:20:01.193Z,118.30
2018-10-19T19:22:30.559Z,100.67
2018-10-19T19:25:04.436Z,122.87
2018-10-19T19:27:32.966Z,110.03
2018-10-19T19:30:01.513Z,116.47
2018-10-19T19:32:30.085Z,115.50
2018-10-19T19:34:59.751Z,111.40
2018-10-19T19:37:28.306Z,103.90
2018-10-19T19:39:57.018Z,108.33
2018-10-19T19:42:30.739Z,122.47
2018-10-19T19:45:01.010Z,193.10
2018-10-19T19:47:34.768Z,169.10
2018-10-19T19:50:05.709Z,136.60
2018-10-19T19:52:34.352Z,569.90
2018-10-19T19:55:04.854Z,164.00
2018-10-19T19:57:33.441Z,116.53
2018-10-19T20:00:04.474Z,116.27
2018-10-19T20:02:33.477Z,106.23
2018-10-19T20:05:02.228Z,121.03
2018-10-19T20:07:30.768Z,104.60
2018-10-19T20:10:00.367Z,115.37
2018-10-19T20:12:28.954Z,115.90
2018-10-19T20:15:00.214Z,104.47
2018-10-19T20:17:28.835Z,112.70
2018-10-19T20:19:57.428Z,105.23
2018-10-19T20:22:26.464Z,110.30
2018-10-19T20:24:55.080Z,126.33
2018-10-19T20:27:24.621Z,114.03
2018-10-19T20:29:54.785Z,118.87
2018-10-19T20:32:23.471Z,105.83
2018-10-19T20:34:56.712Z,93.47
2018-10-19T20:37:25.794Z,94.87
2018-10-19T20:39:54.686Z,94.63
2018-10-19T20:42:24.951Z,81.03
2018-10-19T20:44:53.592Z,93.87
2018-10-19T20:47:27.246Z,96.17
2018-10-19T20:49:58.131Z,114.93
2018-10-19T20:52:26.789Z,105.77
2018-10-19T20:54:59.775Z,81.63
2018-10-19T20:57:28.384Z,104.57
2018-10-19T20:59:57.014Z,85.67
2018-10-19T21:02:25.584Z,89.83
2018-10-19T21:04:54.218Z,91.10
2018-10-19T21:07:22.813Z,91.40
2018-10-19T21:09:51.399Z,89.40
2018-10-19T21:12:20.030Z,100.77
2018-10-19T21:14:48.741Z,89.40
2018-10-19T21:17:17.605Z,97.70
2018-10-19T21:19:46.164Z,88.50
2018-10-19T21:22:14.759Z,90.90
2018-10-19T21:24:43.272Z,78.90
2018-10-19T21:27:11.813Z,77.97
2018-10-19T21:29:40.361Z,84.57
2018-10-19T21:32:09.419Z,78.20
2018-10-19T21:34:37.981Z,79.37
2018-10-19T21:37:07.163Z,72.47
2018-10-19T21:39:35.713Z,68.70
2018-10-19T21:42:04.294Z,61.77
2018-10-19T21:44:32.933Z,76.57
2018-10-19T21:47:02.121Z,71.97
2018-10-19T21:49:30.589Z,64.17
2018-10-19T21:51:59.149Z,77.07
2018-10-19T21:54:27.694Z,79.07
2018-10-19T21:56:56.261Z,76.07
2018-10-19T21:59:24.835Z,70.40
2018-10-19T22:01:56.451Z,76.93
2018-10-19T22:04:25.210Z,76.50
2018-10-19T22:06:55.304Z,79.27
2018-10-19T22:09:23.937Z,80.27
2018-10-19T22:11:53.492Z,89.07
2018-10-19T22:14:22.234Z,86.23
2018-10-19T22:16:50.767Z,99.47
2018-10-19T22:19:19.337Z,94.33
2018-10-19T22:21:47.861Z,92.33
2018-10-19T22:24:17.162Z,70.80
2018-10-19T22:26:45.909Z,69.10
2018-10-19T22:29:14.569Z,62.90
2018-10-19T22:31:43.011Z,64.47
2018-10-19T22:34:11.526Z,59.90
2018-10-19T22:36:40.511Z,58.93
2018-10-19T22:39:09.057Z,63.47
2018-10-19T22:41:37.833Z,60.30
2018-10-19T22:44:06.456Z,63.33
2018-10-19T22:46:35.005Z,59.40
2018-10-19T22:49:03.566Z,62.87
2018-10-19T22:51:32.166Z,62.27
2018-10-19T22:54:00.686Z,67.57
2018-10-19T22:56:29.266Z,82.33
2018-10-19T22:58:57.800Z,77.87
2018-10-19T23:01:26.305Z,69.60
2018-10-19T23:03:55.519Z,79.97
2018-10-19T23:06:24.058Z,75.07
2018-10-19T23:08:53.600Z,107.40
2018-10-19T23:11:22.261Z,64.30
2018-10-19T23:13:50.994Z,61.07
2018-10-19T23:16:19.688Z,66.77
2018-10-19T23:18:48.224Z,62.93
2018-10-19T23:21:16.811Z,63.60
2018-10-19T23:23:45.318Z,62.23
2018-10-19T23:26:13.809Z,68.83
2018-10-19T23:28:43.225Z,68.30
2018-10-19T23:31:11.787Z,65.03
2018-10-19T23:33:40.305Z,67.77
2018-10-19T23:36:08.842Z,59.73
2018-10-19T23:38:37.368Z,62.03
2018-10-19T23:41:06.001Z,60.67
2018-10-19T23:43:34.482Z,57.43
2018-10-19T23:46:03.664Z,58.50
2018-10-19T23:48:32.163Z,56.23
2018-10-19T23:51:01.081Z,52.00
2018-10-19T23:53:29.623Z,50.17
2018-10-19T23:55:58.162Z,50.73
2018-10-19T23:58:26.713Z,53.87
